Portada
METAR-TAF:

METAR-TAF

Aeropuertos :

Kota, India

latitud: 25-09-36N, longitud: 075-50-44E, altitud: 273 m

Observación

El informe se hizo hace 9 horas y 30 minutos, a las 06:00 UTC
Viento 4 kt del oeste
Temperatura 32°C
Humedad 34%
Presión 1010 hPa
Visibilidad: 6000 m

METAR: VIKO 270600Z 99004KT 6000 NSC 32/14 Q1010

Hora: 21:00 (15:30 UTC)

Pronóstico

El informe se hizo hace 16 horas y 30 minutos, a las 23:00 UTC
Pronóstico válido del 27 a las 00 UTC al 27 a las 09 UTC
Viento 5 kt del oeste
Visibilidad: 2000 m
Nubes dispersas a una altura de 10000 ft
calima
Evolucionando progresivamente
del 27 a las 04 UTC al 27 a las 06 UTC
Viento 8 kt del oeste
Visibilidad: 3000 m
calima
Evolucionando progresivamente
del 27 a las 07 UTC al 27 a las 09 UTC
Viento 10 kt del oeste
Visibilidad: 5000 m
calima

TAF: VIKO 262300Z 2700/2709 26005KT 2000 HZ SCT100 BECMG 2704/2706 27008KT 3000 HZ BECMG 2707/2709 28010KT 5000 HZ

Observaciones y pronósticos meteorológicos de más de 4000 aeropuertos (mensajes METAR y TAF).

Los puntos amarillos y rojos representan las estaciones disponibles.

Ponga el ratón en el punto deseado para ver el nombre de la estación.

Haga clic para ver las observaciones y los pronósticos meteorológicos.

Para cambiar el mapa : haga clic en los botones verdes con una cruz de color negro para hacer un zoom, en el botón verde con un guión para alejar o en las flechas verdes para mapas adyacentes.


METAR-TAF: